Defoe, Kentucky
Current Conditions -  °F | °C
As of 9:20 AM on Friday 31 Oct 2014 (Local Time) from KFFT Reporting Station
Light Rain Light Rain  
Wind Chill: 44°   Ceiling: 3300
Heat Index: 44°   Visibility: 3mi
Dew Point: 41°   Wind: 0mph
Humidity: 89%   Direction: NA
Pressure: 29.99"   Gusts: NA
Location:  38.369°N, 85.0622°W
Report Text: KFFT 311320Z AUTO 00000KT 3SM -RA BR SCT027 BKN033 OVC041 07/05 A2999 RMK AO2 RAB01 P0001 T00670050
Loading
Personal Weather Stations






























Interactive Weather Map New forecast layout! Learn more

10-Day Weather Forecast

Advertisements
Track Severe Weather on mobile